sensor_id;sensor_type;location;lat;lon;timestamp;P1;durP1;ratioP1;P2;durP2;ratioP2
6763;SDS011;47432;48.760;9.178;2023-07-30T00:02:03;16.63;;;3.00;;
6763;SDS011;47432;48.760;9.178;2023-07-30T00:04:29;22.93;;;4.67;;
6763;SDS011;47432;48.760;9.178;2023-07-30T00:06:55;20.80;;;3.10;;
6763;SDS011;47432;48.760;9.178;2023-07-30T00:09:23;17.90;;;3.20;;
6763;SDS011;47432;48.760;9.178;2023-07-30T00:11:49;18.20;;;3.50;;
6763;SDS011;47432;48.760;9.178;2023-07-30T00:14:14;16.90;;;2.77;;
6763;SDS011;47432;48.760;9.178;2023-07-30T00:16:40;17.37;;;3.07;;
6763;SDS011;47432;48.760;9.178;2023-07-30T00:19:06;18.40;;;3.50;;
6763;SDS011;47432;48.760;9.178;2023-07-30T00:21:32;18.40;;;3.57;;
6763;SDS011;47432;48.760;9.178;2023-07-30T00:23:57;16.60;;;2.97;;
6763;SDS011;47432;48.760;9.178;2023-07-30T00:26:24;18.27;;;3.67;;
6763;SDS011;47432;48.760;9.178;2023-07-30T00:28:51;16.27;;;3.37;;
6763;SDS011;47432;48.760;9.178;2023-07-30T00:31:17;17.50;;;3.70;;
6763;SDS011;47432;48.760;9.178;2023-07-30T00:33:43;18.80;;;4.13;;
6763;SDS011;47432;48.760;9.178;2023-07-30T00:36:08;18.47;;;3.70;;
6763;SDS011;47432;48.760;9.178;2023-07-30T00:38:34;16.17;;;3.33;;
6763;SDS011;47432;48.760;9.178;2023-07-30T00:41:00;17.57;;;3.80;;
6763;SDS011;47432;48.760;9.178;2023-07-30T00:43:25;16.60;;;4.30;;
6763;SDS011;47432;48.760;9.178;2023-07-30T00:45:51;18.10;;;4.10;;
6763;SDS011;47432;48.760;9.178;2023-07-30T00:48:19;19.03;;;5.33;;
6763;SDS011;47432;48.760;9.178;2023-07-30T00:50:45;20.57;;;5.13;;
6763;SDS011;47432;48.760;9.178;2023-07-30T00:53:11;22.50;;;5.53;;
6763;SDS011;47432;48.760;9.178;2023-07-30T00:55:40;18.67;;;4.80;;
6763;SDS011;47432;48.760;9.178;2023-07-30T00:58:06;21.73;;;6.50;;
6763;SDS011;47432;48.760;9.178;2023-07-30T01:00:32;20.27;;;6.30;;
6763;SDS011;47432;48.760;9.178;2023-07-30T01:02:58;18.60;;;4.57;;
6763;SDS011;47432;48.760;9.178;2023-07-30T01:05:25;23.67;;;7.40;;
6763;SDS011;47432;48.760;9.178;2023-07-30T01:07:51;21.20;;;5.77;;
6763;SDS011;47432;48.760;9.178;2023-07-30T01:10:17;19.93;;;5.67;;
6763;SDS011;47432;48.760;9.178;2023-07-30T01:12:43;20.03;;;5.47;;
6763;SDS011;47432;48.760;9.178;2023-07-30T01:15:10;23.33;;;5.60;;
6763;SDS011;47432;48.760;9.178;2023-07-30T01:17:37;20.33;;;5.50;;
6763;SDS011;47432;48.760;9.178;2023-07-30T01:20:03;20.43;;;6.00;;
6763;SDS011;47432;48.760;9.178;2023-07-30T01:22:30;21.37;;;5.97;;
6763;SDS011;47432;48.760;9.178;2023-07-30T01:24:55;21.57;;;6.10;;
6763;SDS011;47432;48.760;9.178;2023-07-30T01:27:28;19.80;;;5.37;;
6763;SDS011;47432;48.760;9.178;2023-07-30T01:30:41;23.63;;;6.40;;
6763;SDS011;47432;48.760;9.178;2023-07-30T01:32:51;20.80;;;6.23;;
6763;SDS011;47432;48.760;9.178;2023-07-30T01:35:20;20.10;;;5.43;;
6763;SDS011;47432;48.760;9.178;2023-07-30T01:37:50;21.13;;;5.90;;
6763;SDS011;47432;48.760;9.178;2023-07-30T01:40:19;19.40;;;5.77;;
6763;SDS011;47432;48.760;9.178;2023-07-30T01:42:46;19.17;;;5.40;;
6763;SDS011;47432;48.760;9.178;2023-07-30T01:45:11;20.70;;;5.63;;
6763;SDS011;47432;48.760;9.178;2023-07-30T01:47:37;20.23;;;5.60;;
6763;SDS011;47432;48.760;9.178;2023-07-30T01:50:03;22.90;;;5.57;;
6763;SDS011;47432;48.760;9.178;2023-07-30T01:52:29;17.30;;;4.40;;
6763;SDS011;47432;48.760;9.178;2023-07-30T01:54:55;22.97;;;5.80;;
6763;SDS011;47432;48.760;9.178;2023-07-30T01:57:23;19.27;;;5.10;;
6763;SDS011;47432;48.760;9.178;2023-07-30T01:59:49;18.23;;;4.20;;
6763;SDS011;47432;48.760;9.178;2023-07-30T02:02:15;21.37;;;5.57;;
6763;SDS011;47432;48.760;9.178;2023-07-30T02:04:40;21.33;;;4.93;;
6763;SDS011;47432;48.760;9.178;2023-07-30T02:07:06;20.20;;;5.03;;
6763;SDS011;47432;48.760;9.178;2023-07-30T02:09:32;20.33;;;5.00;;
6763;SDS011;47432;48.760;9.178;2023-07-30T02:11:58;19.13;;;4.53;;
6763;SDS011;47432;48.760;9.178;2023-07-30T02:14:23;18.20;;;4.10;;
6763;SDS011;47432;48.760;9.178;2023-07-30T02:16:50;19.10;;;4.97;;
6763;SDS011;47432;48.760;9.178;2023-07-30T02:19:16;18.10;;;4.20;;
6763;SDS011;47432;48.760;9.178;2023-07-30T02:21:41;19.50;;;5.33;;
6763;SDS011;47432;48.760;9.178;2023-07-30T02:24:08;19.40;;;5.30;;
6763;SDS011;47432;48.760;9.178;2023-07-30T02:26:36;18.80;;;5.00;;
6763;SDS011;47432;48.760;9.178;2023-07-30T02:29:03;19.80;;;5.17;;
6763;SDS011;47432;48.760;9.178;2023-07-30T02:31:29;21.93;;;5.63;;
6763;SDS011;47432;48.760;9.178;2023-07-30T02:33:55;18.77;;;5.27;;
6763;SDS011;47432;48.760;9.178;2023-07-30T02:36:21;23.70;;;6.37;;
6763;SDS011;47432;48.760;9.178;2023-07-30T02:38:47;22.00;;;6.13;;
6763;SDS011;47432;48.760;9.178;2023-07-30T02:41:13;20.10;;;5.37;;
6763;SDS011;47432;48.760;9.178;2023-07-30T02:43:38;19.40;;;5.57;;
6763;SDS011;47432;48.760;9.178;2023-07-30T02:46:04;18.13;;;4.63;;
6763;SDS011;47432;48.760;9.178;2023-07-30T02:48:31;17.17;;;4.47;;
6763;SDS011;47432;48.760;9.178;2023-07-30T02:50:57;23.63;;;6.20;;
6763;SDS011;47432;48.760;9.178;2023-07-30T02:53:23;20.77;;;5.10;;
6763;SDS011;47432;48.760;9.178;2023-07-30T02:55:49;17.03;;;3.83;;
6763;SDS011;47432;48.760;9.178;2023-07-30T02:58:14;20.67;;;4.93;;
6763;SDS011;47432;48.760;9.178;2023-07-30T03:00:40;18.67;;;4.60;;
6763;SDS011;47432;48.760;9.178;2023-07-30T03:03:06;21.40;;;5.40;;
6763;SDS011;47432;48.760;9.178;2023-07-30T03:05:32;18.87;;;4.77;;
6763;SDS011;47432;48.760;9.178;2023-07-30T03:07:57;24.37;;;6.13;;
6763;SDS011;47432;48.760;9.178;2023-07-30T03:10:23;19.40;;;4.60;;
6763;SDS011;47432;48.760;9.178;2023-07-30T03:12:49;20.10;;;5.20;;
6763;SDS011;47432;48.760;9.178;2023-07-30T03:15:14;17.60;;;3.90;;
6763;SDS011;47432;48.760;9.178;2023-07-30T03:17:40;20.43;;;4.90;;
6763;SDS011;47432;48.760;9.178;2023-07-30T03:20:06;19.20;;;5.30;;
6763;SDS011;47432;48.760;9.178;2023-07-30T03:22:33;18.63;;;4.77;;
6763;SDS011;47432;48.760;9.178;2023-07-30T03:24:59;18.40;;;4.70;;
6763;SDS011;47432;48.760;9.178;2023-07-30T03:27:27;17.30;;;4.27;;
6763;SDS011;47432;48.760;9.178;2023-07-30T03:29:53;18.00;;;4.20;;
6763;SDS011;47432;48.760;9.178;2023-07-30T03:32:19;21.27;;;5.63;;
6763;SDS011;47432;48.760;9.178;2023-07-30T03:34:45;21.10;;;5.40;;
6763;SDS011;47432;48.760;9.178;2023-07-30T03:37:10;19.90;;;5.37;;
6763;SDS011;47432;48.760;9.178;2023-07-30T03:39:36;20.63;;;4.90;;
6763;SDS011;47432;48.760;9.178;2023-07-30T03:42:02;20.43;;;5.30;;
6763;SDS011;47432;48.760;9.178;2023-07-30T03:44:30;19.83;;;4.67;;
6763;SDS011;47432;48.760;9.178;2023-07-30T03:46:56;18.77;;;5.03;;
6763;SDS011;47432;48.760;9.178;2023-07-30T03:49:21;19.20;;;5.10;;
6763;SDS011;47432;48.760;9.178;2023-07-30T03:51:47;20.20;;;4.70;;
6763;SDS011;47432;48.760;9.178;2023-07-30T03:54:13;17.50;;;4.77;;
6763;SDS011;47432;48.760;9.178;2023-07-30T03:56:39;19.03;;;4.50;;
6763;SDS011;47432;48.760;9.178;2023-07-30T03:59:04;18.53;;;4.47;;
6763;SDS011;47432;48.760;9.178;2023-07-30T04:01:30;18.20;;;4.20;;
6763;SDS011;47432;48.760;9.178;2023-07-30T04:03:57;19.40;;;5.10;;
6763;SDS011;47432;48.760;9.178;2023-07-30T04:06:23;19.10;;;4.93;;
6763;SDS011;47432;48.760;9.178;2023-07-30T04:08:48;23.53;;;4.70;;
6763;SDS011;47432;48.760;9.178;2023-07-30T04:11:17;18.63;;;4.57;;
6763;SDS011;47432;48.760;9.178;2023-07-30T04:13:43;16.70;;;3.57;;
6763;SDS011;47432;48.760;9.178;2023-07-30T04:16:08;18.37;;;3.93;;
6763;SDS011;47432;48.760;9.178;2023-07-30T04:18:34;19.70;;;4.60;;
6763;SDS011;47432;48.760;9.178;2023-07-30T04:21:05;18.33;;;4.27;;
6763;SDS011;47432;48.760;9.178;2023-07-30T04:23:30;17.00;;;3.57;;
6763;SDS011;47432;48.760;9.178;2023-07-30T04:25:56;18.67;;;4.53;;
6763;SDS011;47432;48.760;9.178;2023-07-30T04:28:24;17.33;;;3.67;;
6763;SDS011;47432;48.760;9.178;2023-07-30T04:30:50;17.90;;;4.00;;
6763;SDS011;47432;48.760;9.178;2023-07-30T04:33:15;19.03;;;4.47;;
6763;SDS011;47432;48.760;9.178;2023-07-30T04:35:42;18.13;;;4.07;;
6763;SDS011;47432;48.760;9.178;2023-07-30T04:38:08;21.50;;;4.97;;
6763;SDS011;47432;48.760;9.178;2023-07-30T04:40:33;16.60;;;3.27;;
6763;SDS011;47432;48.760;9.178;2023-07-30T04:42:59;19.63;;;3.90;;
6763;SDS011;47432;48.760;9.178;2023-07-30T04:45:25;17.57;;;3.83;;
6763;SDS011;47432;48.760;9.178;2023-07-30T04:47:50;19.30;;;4.77;;
6763;SDS011;47432;48.760;9.178;2023-07-30T04:50:16;20.37;;;4.57;;
6763;SDS011;47432;48.760;9.178;2023-07-30T04:52:42;20.23;;;4.80;;
6763;SDS011;47432;48.760;9.178;2023-07-30T04:55:08;17.90;;;4.00;;
6763;SDS011;47432;48.760;9.178;2023-07-30T04:57:33;21.20;;;4.83;;
6763;SDS011;47432;48.760;9.178;2023-07-30T04:59:59;16.33;;;2.80;;
6763;SDS011;47432;48.760;9.178;2023-07-30T05:02:25;18.70;;;4.33;;
6763;SDS011;47432;48.760;9.178;2023-07-30T05:04:51;17.93;;;3.93;;
6763;SDS011;47432;48.760;9.178;2023-07-30T05:07:19;17.13;;;3.80;;
6763;SDS011;47432;48.760;9.178;2023-07-30T05:09:47;18.63;;;3.93;;
6763;SDS011;47432;48.760;9.178;2023-07-30T05:12:15;18.43;;;3.80;;
6763;SDS011;47432;48.760;9.178;2023-07-30T05:14:41;16.40;;;3.10;;
6763;SDS011;47432;48.760;9.178;2023-07-30T05:17:06;18.33;;;4.43;;
6763;SDS011;47432;48.760;9.178;2023-07-30T05:19:32;17.80;;;3.77;;
6763;SDS011;47432;48.760;9.178;2023-07-30T05:21:58;19.97;;;4.50;;
6763;SDS011;47432;48.760;9.178;2023-07-30T05:24:27;16.70;;;3.90;;
6763;SDS011;47432;48.760;9.178;2023-07-30T05:26:52;16.10;;;3.30;;
6763;SDS011;47432;48.760;9.178;2023-07-30T05:29:18;16.77;;;3.63;;
6763;SDS011;47432;48.760;9.178;2023-07-30T05:31:44;17.00;;;4.00;;
6763;SDS011;47432;48.760;9.178;2023-07-30T05:34:10;17.67;;;4.37;;
6763;SDS011;47432;48.760;9.178;2023-07-30T05:36:35;18.57;;;4.10;;
6763;SDS011;47432;48.760;9.178;2023-07-30T05:39:03;15.57;;;3.17;;
6763;SDS011;47432;48.760;9.178;2023-07-30T05:41:31;18.10;;;4.13;;
6763;SDS011;47432;48.760;9.178;2023-07-30T05:43:57;16.27;;;3.33;;
6763;SDS011;47432;48.760;9.178;2023-07-30T05:46:23;18.50;;;4.80;;
6763;SDS011;47432;48.760;9.178;2023-07-30T05:48:48;18.53;;;4.53;;
6763;SDS011;47432;48.760;9.178;2023-07-30T05:51:14;18.13;;;4.70;;
6763;SDS011;47432;48.760;9.178;2023-07-30T05:53:40;18.50;;;4.73;;
6763;SDS011;47432;48.760;9.178;2023-07-30T05:56:05;17.60;;;4.53;;
6763;SDS011;47432;48.760;9.178;2023-07-30T05:58:31;18.83;;;3.90;;
6763;SDS011;47432;48.760;9.178;2023-07-30T06:00:57;16.30;;;3.70;;
6763;SDS011;47432;48.760;9.178;2023-07-30T06:03:23;16.57;;;3.60;;
6763;SDS011;47432;48.760;9.178;2023-07-30T06:05:48;17.50;;;3.90;;
6763;SDS011;47432;48.760;9.178;2023-07-30T06:08:14;18.80;;;4.53;;
6763;SDS011;47432;48.760;9.178;2023-07-30T06:10:40;15.87;;;3.43;;
6763;SDS011;47432;48.760;9.178;2023-07-30T06:13:05;17.80;;;3.90;;
6763;SDS011;47432;48.760;9.178;2023-07-30T06:15:32;14.57;;;3.23;;
6763;SDS011;47432;48.760;9.178;2023-07-30T06:17:58;15.50;;;3.33;;
6763;SDS011;47432;48.760;9.178;2023-07-30T06:20:25;15.10;;;3.73;;
6763;SDS011;47432;48.760;9.178;2023-07-30T06:22:51;17.37;;;4.40;;
6763;SDS011;47432;48.760;9.178;2023-07-30T06:25:16;14.40;;;3.37;;
6763;SDS011;47432;48.760;9.178;2023-07-30T06:27:42;16.43;;;4.17;;
6763;SDS011;47432;48.760;9.178;2023-07-30T06:30:08;15.50;;;3.47;;
6763;SDS011;47432;48.760;9.178;2023-07-30T06:32:35;21.20;;;4.40;;
6763;SDS011;47432;48.760;9.178;2023-07-30T06:35:01;14.73;;;3.00;;
6763;SDS011;47432;48.760;9.178;2023-07-30T06:37:28;14.10;;;3.27;;
6763;SDS011;47432;48.760;9.178;2023-07-30T06:39:54;15.63;;;3.07;;
6763;SDS011;47432;48.760;9.178;2023-07-30T06:42:19;14.73;;;3.40;;
6763;SDS011;47432;48.760;9.178;2023-07-30T06:44:45;13.40;;;3.07;;
6763;SDS011;47432;48.760;9.178;2023-07-30T06:47:11;13.00;;;2.43;;
6763;SDS011;47432;48.760;9.178;2023-07-30T06:49:40;14.20;;;3.13;;
6763;SDS011;47432;48.760;9.178;2023-07-30T06:52:05;14.57;;;2.73;;
6763;SDS011;47432;48.760;9.178;2023-07-30T06:54:31;12.30;;;2.63;;
6763;SDS011;47432;48.760;9.178;2023-07-30T06:56:57;15.23;;;3.40;;
6763;SDS011;47432;48.760;9.178;2023-07-30T06:59:23;12.70;;;2.30;;
6763;SDS011;47432;48.760;9.178;2023-07-30T07:01:49;14.37;;;2.90;;
6763;SDS011;47432;48.760;9.178;2023-07-30T07:04:14;15.63;;;3.90;;
6763;SDS011;47432;48.760;9.178;2023-07-30T07:06:42;12.80;;;2.73;;
6763;SDS011;47432;48.760;9.178;2023-07-30T07:09:08;15.90;;;3.60;;
6763;SDS011;47432;48.760;9.178;2023-07-30T07:11:34;14.43;;;2.90;;
6763;SDS011;47432;48.760;9.178;2023-07-30T07:13:59;12.80;;;2.60;;
6763;SDS011;47432;48.760;9.178;2023-07-30T07:16:25;17.20;;;4.50;;
6763;SDS011;47432;48.760;9.178;2023-07-30T07:18:51;13.57;;;2.83;;
6763;SDS011;47432;48.760;9.178;2023-07-30T07:21:17;14.33;;;2.83;;
6763;SDS011;47432;48.760;9.178;2023-07-30T07:23:42;14.47;;;2.20;;
6763;SDS011;47432;48.760;9.178;2023-07-30T07:26:10;14.33;;;3.07;;
6763;SDS011;47432;48.760;9.178;2023-07-30T07:28:39;14.00;;;2.97;;
6763;SDS011;47432;48.760;9.178;2023-07-30T07:31:04;16.33;;;3.10;;
6763;SDS011;47432;48.760;9.178;2023-07-30T07:33:30;11.97;;;2.03;;
6763;SDS011;47432;48.760;9.178;2023-07-30T07:36:05;11.60;;;2.00;;
6763;SDS011;47432;48.760;9.178;2023-07-30T07:38:33;11.70;;;2.20;;
6763;SDS011;47432;48.760;9.178;2023-07-30T07:41:02;11.90;;;2.20;;
6763;SDS011;47432;48.760;9.178;2023-07-30T07:43:28;13.33;;;2.70;;
6763;SDS011;47432;48.760;9.178;2023-07-30T07:45:54;10.83;;;1.60;;
6763;SDS011;47432;48.760;9.178;2023-07-30T07:48:20;12.10;;;2.20;;
6763;SDS011;47432;48.760;9.178;2023-07-30T07:50:45;13.97;;;3.00;;
6763;SDS011;47432;48.760;9.178;2023-07-30T07:53:14;13.33;;;2.87;;
6763;SDS011;47432;48.760;9.178;2023-07-30T07:55:39;11.50;;;2.00;;
6763;SDS011;47432;48.760;9.178;2023-07-30T07:58:06;12.97;;;2.40;;
6763;SDS011;47432;48.760;9.178;2023-07-30T08:00:33;11.03;;;1.80;;
6763;SDS011;47432;48.760;9.178;2023-07-30T08:02:59;12.93;;;1.70;;
6763;SDS011;47432;48.760;9.178;2023-07-30T08:05:26;10.10;;;1.70;;
6763;SDS011;47432;48.760;9.178;2023-07-30T08:07:52;13.50;;;3.33;;
6763;SDS011;47432;48.760;9.178;2023-07-30T08:10:17;10.17;;;1.80;;
6763;SDS011;47432;48.760;9.178;2023-07-30T08:12:43;10.57;;;1.83;;
6763;SDS011;47432;48.760;9.178;2023-07-30T08:15:14;10.47;;;2.10;;
6763;SDS011;47432;48.760;9.178;2023-07-30T08:17:40;8.87;;;1.93;;
6763;SDS011;47432;48.760;9.178;2023-07-30T08:20:06;9.27;;;2.07;;
6763;SDS011;47432;48.760;9.178;2023-07-30T08:22:32;8.97;;;2.07;;
6763;SDS011;47432;48.760;9.178;2023-07-30T08:25:01;8.40;;;1.70;;
6763;SDS011;47432;48.760;9.178;2023-07-30T08:27:28;9.67;;;1.90;;
6763;SDS011;47432;48.760;9.178;2023-07-30T08:29:56;7.90;;;1.50;;
6763;SDS011;47432;48.760;9.178;2023-07-30T08:32:22;8.53;;;2.00;;
6763;SDS011;47432;48.760;9.178;2023-07-30T08:34:48;8.27;;;1.80;;
6763;SDS011;47432;48.760;9.178;2023-07-30T08:37:14;9.43;;;2.03;;
6763;SDS011;47432;48.760;9.178;2023-07-30T08:39:40;7.80;;;1.77;;
6763;SDS011;47432;48.760;9.178;2023-07-30T08:42:05;10.57;;;1.93;;
6763;SDS011;47432;48.760;9.178;2023-07-30T08:44:31;11.23;;;3.37;;
6763;SDS011;47432;48.760;9.178;2023-07-30T08:46:57;10.43;;;2.47;;
6763;SDS011;47432;48.760;9.178;2023-07-30T08:49:23;9.80;;;2.50;;
6763;SDS011;47432;48.760;9.178;2023-07-30T08:51:52;12.10;;;3.23;;
6763;SDS011;47432;48.760;9.178;2023-07-30T08:54:20;9.10;;;2.40;;
6763;SDS011;47432;48.760;9.178;2023-07-30T08:56:48;9.60;;;2.73;;
6763;SDS011;47432;48.760;9.178;2023-07-30T08:59:14;14.50;;;3.77;;
6763;SDS011;47432;48.760;9.178;2023-07-30T09:01:44;8.60;;;2.10;;
6763;SDS011;47432;48.760;9.178;2023-07-30T09:04:13;9.50;;;2.77;;
6763;SDS011;47432;48.760;9.178;2023-07-30T09:06:42;13.50;;;2.80;;
6763;SDS011;47432;48.760;9.178;2023-07-30T09:09:09;8.47;;;1.83;;
6763;SDS011;47432;48.760;9.178;2023-07-30T09:11:36;8.03;;;1.77;;
6763;SDS011;47432;48.760;9.178;2023-07-30T09:14:02;9.97;;;2.70;;
6763;SDS011;47432;48.760;9.178;2023-07-30T09:16:28;11.80;;;3.77;;
6763;SDS011;47432;48.760;9.178;2023-07-30T09:18:54;9.80;;;2.40;;
6763;SDS011;47432;48.760;9.178;2023-07-30T09:21:20;10.10;;;2.73;;
6763;SDS011;47432;48.760;9.178;2023-07-30T09:24:00;8.63;;;2.23;;
6763;SDS011;47432;48.760;9.178;2023-07-30T09:26:31;10.00;;;2.80;;
6763;SDS011;47432;48.760;9.178;2023-07-30T09:29:10;11.47;;;3.10;;
6763;SDS011;47432;48.760;9.178;2023-07-30T09:31:52;10.40;;;2.50;;
6763;SDS011;47432;48.760;9.178;2023-07-30T09:34:19;10.00;;;2.47;;
6763;SDS011;47432;48.760;9.178;2023-07-30T09:36:49;9.27;;;2.20;;
6763;SDS011;47432;48.760;9.178;2023-07-30T09:39:17;11.10;;;3.30;;
6763;SDS011;47432;48.760;9.178;2023-07-30T09:41:49;9.83;;;2.77;;
6763;SDS011;47432;48.760;9.178;2023-07-30T09:44:17;10.90;;;2.97;;
6763;SDS011;47432;48.760;9.178;2023-07-30T09:46:48;10.70;;;3.03;;
6763;SDS011;47432;48.760;9.178;2023-07-30T09:49:15;8.70;;;2.30;;
6763;SDS011;47432;48.760;9.178;2023-07-30T09:51:41;10.23;;;2.73;;
6763;SDS011;47432;48.760;9.178;2023-07-30T09:54:08;10.00;;;2.90;;
6763;SDS011;47432;48.760;9.178;2023-07-30T09:56:36;9.47;;;2.90;;
6763;SDS011;47432;48.760;9.178;2023-07-30T09:59:06;9.70;;;2.60;;
6763;SDS011;47432;48.760;9.178;2023-07-30T10:01:38;10.33;;;2.80;;
6763;SDS011;47432;48.760;9.178;2023-07-30T10:04:10;9.47;;;2.47;;
6763;SDS011;47432;48.760;9.178;2023-07-30T10:06:40;13.00;;;4.20;;
6763;SDS011;47432;48.760;9.178;2023-07-30T10:09:11;12.00;;;3.80;;
6763;SDS011;47432;48.760;9.178;2023-07-30T10:11:39;11.90;;;4.10;;
6763;SDS011;47432;48.760;9.178;2023-07-30T10:14:06;12.17;;;4.17;;
6763;SDS011;47432;48.760;9.178;2023-07-30T10:16:32;12.90;;;4.03;;
6763;SDS011;47432;48.760;9.178;2023-07-30T10:18:58;12.70;;;4.17;;
6763;SDS011;47432;48.760;9.178;2023-07-30T10:21:26;12.20;;;3.90;;
6763;SDS011;47432;48.760;9.178;2023-07-30T10:24:02;11.83;;;3.63;;
6763;SDS011;47432;48.760;9.178;2023-07-30T10:26:29;11.80;;;3.80;;
6763;SDS011;47432;48.760;9.178;2023-07-30T10:29:19;14.10;;;4.20;;
6763;SDS011;47432;48.760;9.178;2023-07-30T10:31:51;12.33;;;4.07;;
6763;SDS011;47432;48.760;9.178;2023-07-30T10:34:26;11.60;;;3.53;;
6763;SDS011;47432;48.760;9.178;2023-07-30T10:36:54;12.60;;;4.17;;
6763;SDS011;47432;48.760;9.178;2023-07-30T10:39:22;12.40;;;3.90;;
6763;SDS011;47432;48.760;9.178;2023-07-30T10:41:55;15.13;;;4.63;;
6763;SDS011;47432;48.760;9.178;2023-07-30T10:44:24;13.23;;;3.90;;
6763;SDS011;47432;48.760;9.178;2023-07-30T10:46:58;11.97;;;3.67;;
6763;SDS011;47432;48.760;9.178;2023-07-30T10:49:25;11.37;;;3.40;;
6763;SDS011;47432;48.760;9.178;2023-07-30T10:51:52;12.50;;;4.07;;
6763;SDS011;47432;48.760;9.178;2023-07-30T10:54:20;14.50;;;4.13;;
6763;SDS011;47432;48.760;9.178;2023-07-30T10:56:47;12.43;;;4.10;;
6763;SDS011;47432;48.760;9.178;2023-07-30T10:59:13;10.50;;;3.03;;
6763;SDS011;47432;48.760;9.178;2023-07-30T11:01:41;11.10;;;2.60;;
6763;SDS011;47432;48.760;9.178;2023-07-30T11:04:09;12.77;;;3.33;;
6763;SDS011;47432;48.760;9.178;2023-07-30T11:06:49;18.90;;;4.63;;
6763;SDS011;47432;48.760;9.178;2023-07-30T11:09:20;11.47;;;2.97;;
6763;SDS011;47432;48.760;9.178;2023-07-30T11:11:50;10.47;;;2.80;;
6763;SDS011;47432;48.760;9.178;2023-07-30T11:14:18;14.93;;;3.20;;
6763;SDS011;47432;48.760;9.178;2023-07-30T11:16:49;9.73;;;3.13;;
6763;SDS011;47432;48.760;9.178;2023-07-30T11:19:18;10.67;;;3.20;;
6763;SDS011;47432;48.760;9.178;2023-07-30T11:21:48;13.13;;;3.50;;
6763;SDS011;47432;48.760;9.178;2023-07-30T11:24:16;10.40;;;3.10;;
6763;SDS011;47432;48.760;9.178;2023-07-30T11:26:42;12.37;;;2.90;;
6763;SDS011;47432;48.760;9.178;2023-07-30T11:29:18;10.80;;;3.00;;
6763;SDS011;47432;48.760;9.178;2023-07-30T11:31:45;11.40;;;3.87;;
6763;SDS011;47432;48.760;9.178;2023-07-30T11:34:15;11.73;;;3.47;;
6763;SDS011;47432;48.760;9.178;2023-07-30T11:36:43;10.13;;;2.80;;
6763;SDS011;47432;48.760;9.178;2023-07-30T11:39:10;10.03;;;2.70;;
6763;SDS011;47432;48.760;9.178;2023-07-30T11:41:36;10.87;;;3.17;;
6763;SDS011;47432;48.760;9.178;2023-07-30T11:44:04;12.57;;;3.53;;
6763;SDS011;47432;48.760;9.178;2023-07-30T11:46:30;11.70;;;3.43;;
6763;SDS011;47432;48.760;9.178;2023-07-30T11:49:11;12.80;;;4.20;;
6763;SDS011;47432;48.760;9.178;2023-07-30T11:51:46;12.37;;;3.50;;
6763;SDS011;47432;48.760;9.178;2023-07-30T11:54:22;10.83;;;3.30;;
6763;SDS011;47432;48.760;9.178;2023-07-30T11:56:53;12.20;;;3.57;;
6763;SDS011;47432;48.760;9.178;2023-07-30T11:59:21;10.80;;;3.00;;
6763;SDS011;47432;48.760;9.178;2023-07-30T12:01:47;11.47;;;3.90;;
6763;SDS011;47432;48.760;9.178;2023-07-30T12:04:12;11.00;;;3.40;;
6763;SDS011;47432;48.760;9.178;2023-07-30T12:06:43;9.97;;;3.10;;
6763;SDS011;47432;48.760;9.178;2023-07-30T12:09:18;13.43;;;3.13;;
6763;SDS011;47432;48.760;9.178;2023-07-30T12:11:51;10.37;;;2.90;;
6763;SDS011;47432;48.760;9.178;2023-07-30T12:14:25;11.30;;;3.13;;
6763;SDS011;47432;48.760;9.178;2023-07-30T12:17:07;9.83;;;2.97;;
6763;SDS011;47432;48.760;9.178;2023-07-30T12:19:33;11.50;;;3.70;;
6763;SDS011;47432;48.760;9.178;2023-07-30T12:22:01;12.50;;;3.80;;
6763;SDS011;47432;48.760;9.178;2023-07-30T12:24:29;10.30;;;2.87;;
6763;SDS011;47432;48.760;9.178;2023-07-30T12:26:55;11.60;;;3.37;;
6763;SDS011;47432;48.760;9.178;2023-07-30T12:29:21;9.20;;;2.40;;
6763;SDS011;47432;48.760;9.178;2023-07-30T12:31:47;11.27;;;3.10;;
6763;SDS011;47432;48.760;9.178;2023-07-30T12:34:12;10.03;;;2.93;;
6763;SDS011;47432;48.760;9.178;2023-07-30T12:36:42;10.60;;;2.93;;
6763;SDS011;47432;48.760;9.178;2023-07-30T12:39:07;10.40;;;3.10;;
6763;SDS011;47432;48.760;9.178;2023-07-30T12:41:33;9.60;;;2.60;;
6763;SDS011;47432;48.760;9.178;2023-07-30T12:43:59;11.40;;;3.00;;
6763;SDS011;47432;48.760;9.178;2023-07-30T12:46:25;9.30;;;2.60;;
6763;SDS011;47432;48.760;9.178;2023-07-30T12:48:55;9.93;;;2.50;;
6763;SDS011;47432;48.760;9.178;2023-07-30T12:51:21;12.17;;;3.80;;
6763;SDS011;47432;48.760;9.178;2023-07-30T12:53:48;12.07;;;3.50;;
6763;SDS011;47432;48.760;9.178;2023-07-30T12:56:13;10.60;;;2.80;;
6763;SDS011;47432;48.760;9.178;2023-07-30T12:58:40;11.80;;;3.27;;
6763;SDS011;47432;48.760;9.178;2023-07-30T13:01:06;10.17;;;3.03;;
6763;SDS011;47432;48.760;9.178;2023-07-30T13:03:32;10.00;;;2.77;;
6763;SDS011;47432;48.760;9.178;2023-07-30T13:05:58;11.43;;;3.40;;
6763;SDS011;47432;48.760;9.178;2023-07-30T13:08:23;10.70;;;3.00;;
6763;SDS011;47432;48.760;9.178;2023-07-30T13:10:49;11.30;;;2.97;;
6763;SDS011;47432;48.760;9.178;2023-07-30T13:13:15;12.37;;;3.07;;
6763;SDS011;47432;48.760;9.178;2023-07-30T13:15:40;11.53;;;3.10;;
6763;SDS011;47432;48.760;9.178;2023-07-30T13:18:06;10.97;;;3.17;;
6763;SDS011;47432;48.760;9.178;2023-07-30T13:20:32;12.13;;;3.10;;
6763;SDS011;47432;48.760;9.178;2023-07-30T13:23:00;12.60;;;3.13;;
6763;SDS011;47432;48.760;9.178;2023-07-30T13:25:26;10.90;;;2.43;;
6763;SDS011;47432;48.760;9.178;2023-07-30T13:27:54;10.83;;;2.73;;
6763;SDS011;47432;48.760;9.178;2023-07-30T13:30:20;11.93;;;3.60;;
6763;SDS011;47432;48.760;9.178;2023-07-30T13:32:46;12.27;;;3.13;;
6763;SDS011;47432;48.760;9.178;2023-07-30T13:35:11;10.57;;;2.43;;
6763;SDS011;47432;48.760;9.178;2023-07-30T13:37:37;11.93;;;3.23;;
6763;SDS011;47432;48.760;9.178;2023-07-30T13:40:03;9.83;;;2.83;;
6763;SDS011;47432;48.760;9.178;2023-07-30T13:42:30;10.00;;;2.80;;
6763;SDS011;47432;48.760;9.178;2023-07-30T13:44:55;11.27;;;3.60;;
6763;SDS011;47432;48.760;9.178;2023-07-30T13:47:21;11.67;;;3.50;;
6763;SDS011;47432;48.760;9.178;2023-07-30T13:49:47;11.43;;;2.77;;
6763;SDS011;47432;48.760;9.178;2023-07-30T13:52:13;13.00;;;4.30;;
6763;SDS011;47432;48.760;9.178;2023-07-30T13:54:39;12.07;;;2.90;;
6763;SDS011;47432;48.760;9.178;2023-07-30T13:57:06;10.77;;;2.60;;
6763;SDS011;47432;48.760;9.178;2023-07-30T13:59:32;12.67;;;2.70;;
6763;SDS011;47432;48.760;9.178;2023-07-30T14:01:58;12.03;;;3.30;;
6763;SDS011;47432;48.760;9.178;2023-07-30T14:04:24;9.60;;;2.20;;
6763;SDS011;47432;48.760;9.178;2023-07-30T14:06:50;10.47;;;3.03;;
6763;SDS011;47432;48.760;9.178;2023-07-30T14:09:16;12.43;;;3.20;;
6763;SDS011;47432;48.760;9.178;2023-07-30T14:11:41;11.00;;;2.50;;
6763;SDS011;47432;48.760;9.178;2023-07-30T14:14:10;14.27;;;4.10;;
6763;SDS011;47432;48.760;9.178;2023-07-30T14:16:36;11.10;;;3.33;;
6763;SDS011;47432;48.760;9.178;2023-07-30T14:19:02;11.30;;;2.60;;
6763;SDS011;47432;48.760;9.178;2023-07-30T14:21:28;10.47;;;2.83;;
6763;SDS011;47432;48.760;9.178;2023-07-30T14:23:54;10.73;;;2.70;;
6763;SDS011;47432;48.760;9.178;2023-07-30T14:26:20;11.47;;;3.17;;
6763;SDS011;47432;48.760;9.178;2023-07-30T14:28:45;11.53;;;2.63;;
6763;SDS011;47432;48.760;9.178;2023-07-30T14:31:14;12.20;;;3.43;;
6763;SDS011;47432;48.760;9.178;2023-07-30T14:33:40;12.10;;;3.00;;
6763;SDS011;47432;48.760;9.178;2023-07-30T14:36:06;9.10;;;2.47;;
6763;SDS011;47432;48.760;9.178;2023-07-30T14:38:32;12.27;;;3.40;;
6763;SDS011;47432;48.760;9.178;2023-07-30T14:40:59;11.63;;;2.60;;
6763;SDS011;47432;48.760;9.178;2023-07-30T14:43:26;12.93;;;3.70;;
6763;SDS011;47432;48.760;9.178;2023-07-30T14:45:54;10.83;;;2.60;;
6763;SDS011;47432;48.760;9.178;2023-07-30T14:48:19;10.87;;;2.80;;